createdAt,value
2018-09-04T00:02:18.419Z,15.60
2018-09-04T00:05:29.687Z,15.50
2018-09-04T00:08:40.859Z,15.60
2018-09-04T00:11:52.495Z,15.50
2018-09-04T00:15:03.528Z,15.40
2018-09-04T00:18:14.856Z,15.30
2018-09-04T00:21:27.270Z,15.10
2018-09-04T00:24:39.257Z,15.20
2018-09-04T00:27:50.643Z,15.20
2018-09-04T00:31:02.094Z,15.20
2018-09-04T00:34:13.956Z,15.30
2018-09-04T00:37:25.559Z,15.30
2018-09-04T00:40:37.529Z,15.30
2018-09-04T00:43:48.835Z,15.40
2018-09-04T00:47:00.295Z,15.30
2018-09-04T00:50:12.260Z,15.40
2018-09-04T00:53:23.586Z,15.40
2018-09-04T00:56:34.711Z,15.40
2018-09-04T00:59:45.912Z,15.40
2018-09-04T01:02:58.815Z,15.40
2018-09-04T01:06:10.211Z,15.40
2018-09-04T01:09:23.222Z,15.50
2018-09-04T01:12:34.915Z,15.50
2018-09-04T01:15:46.051Z,15.60
2018-09-04T01:18:57.552Z,15.60
2018-09-04T01:22:10.060Z,15.70
2018-09-04T01:25:21.399Z,15.70
2018-09-04T01:28:32.532Z,15.70
2018-09-04T01:31:44.112Z,15.70
2018-09-04T01:34:55.343Z,15.70
2018-09-04T01:38:06.863Z,15.70
2018-09-04T01:41:18.767Z,15.70
2018-09-04T01:44:30.176Z,15.80
2018-09-04T01:47:41.972Z,15.80
2018-09-04T01:50:53.990Z,15.80
2018-09-04T01:54:06.145Z,15.80
2018-09-04T01:57:18.000Z,15.80
2018-09-04T02:00:36.713Z,15.80
2018-09-04T02:03:48.211Z,15.70
2018-09-04T02:06:59.451Z,15.80
2018-09-04T02:10:11.391Z,15.70
2018-09-04T02:13:22.438Z,15.70
2018-09-04T02:16:33.971Z,15.70
2018-09-04T02:19:45.786Z,15.80
2018-09-04T02:22:57.430Z,15.80
2018-09-04T02:26:08.559Z,15.80
2018-09-04T02:29:19.702Z,15.90
2018-09-04T02:32:31.090Z,15.80
2018-09-04T02:35:42.401Z,15.90
2018-09-04T02:38:53.746Z,15.90
2018-09-04T02:42:05.260Z,16.00
2018-09-04T02:45:17.370Z,15.90
2018-09-04T02:48:28.816Z,15.90
2018-09-04T02:51:39.975Z,16.00
2018-09-04T02:54:51.699Z,15.90
2018-09-04T02:58:02.939Z,15.90
2018-09-04T03:01:14.258Z,16.00
2018-09-04T03:04:25.492Z,15.80
2018-09-04T03:07:37.372Z,15.80
2018-09-04T03:10:48.961Z,15.80
2018-09-04T03:14:00.744Z,15.90
2018-09-04T03:17:11.885Z,15.80
2018-09-04T03:20:22.955Z,15.80
2018-09-04T03:23:34.515Z,15.70
2018-09-04T03:26:46.389Z,15.80
2018-09-04T03:29:57.844Z,15.80
2018-09-04T03:33:09.045Z,15.70
2018-09-04T03:36:20.396Z,15.80
2018-09-04T03:39:32.591Z,15.80
2018-09-04T03:42:43.999Z,15.90
2018-09-04T03:45:55.669Z,15.90
2018-09-04T03:49:08.908Z,15.90
2018-09-04T03:52:20.633Z,15.90
2018-09-04T03:55:33.181Z,15.80
2018-09-04T03:58:45.086Z,15.90
2018-09-04T04:01:56.966Z,16.00
2018-09-04T04:05:08.683Z,16.00
2018-09-04T04:08:20.357Z,16.00
2018-09-04T04:11:31.615Z,16.00
2018-09-04T04:14:42.807Z,16.00
2018-09-04T04:17:53.876Z,16.00
2018-09-04T04:21:04.993Z,15.80
2018-09-04T04:24:16.771Z,15.90
2018-09-04T04:27:27.971Z,15.90
2018-09-04T04:30:39.057Z,16.00
2018-09-04T04:33:50.646Z,16.00
2018-09-04T04:37:01.824Z,16.00
2018-09-04T04:40:13.354Z,16.00
2018-09-04T04:43:24.650Z,16.00
2018-09-04T04:46:37.291Z,16.00
2018-09-04T04:49:49.026Z,16.10
2018-09-04T04:53:00.257Z,16.00
2018-09-04T04:56:16.952Z,16.10
2018-09-04T04:59:28.151Z,16.10
2018-09-04T05:02:39.790Z,16.10
2018-09-04T05:05:51.101Z,16.00
2018-09-04T05:09:03.205Z,16.00
2018-09-04T05:12:14.556Z,16.10
2018-09-04T05:15:25.806Z,16.10
2018-09-04T05:18:37.863Z,16.10
2018-09-04T05:21:49.336Z,16.10
2018-09-04T05:25:01.158Z,16.00
2018-09-04T05:28:13.060Z,16.00
2018-09-04T05:31:24.928Z,16.00
2018-09-04T05:34:36.202Z,16.00
2018-09-04T05:37:48.088Z,16.00
2018-09-04T05:40:59.270Z,16.10
2018-09-04T05:44:10.534Z,16.10
2018-09-04T05:47:22.333Z,16.10
2018-09-04T05:50:33.487Z,16.20
2018-09-04T05:53:45.478Z,16.20
2018-09-04T05:56:56.750Z,16.20
2018-09-04T06:00:12.224Z,16.20
2018-09-04T06:03:23.602Z,16.20
2018-09-04T06:06:34.654Z,16.30
2018-09-04T06:09:45.829Z,16.30
2018-09-04T06:12:58.086Z,16.40
2018-09-04T06:16:09.505Z,16.40
2018-09-04T06:19:21.015Z,16.30
2018-09-04T06:22:32.881Z,16.40
2018-09-04T06:25:44.963Z,16.40
2018-09-04T06:28:56.821Z,16.40
2018-09-04T06:32:08.241Z,16.50
2018-09-04T06:35:19.916Z,16.50
2018-09-04T06:38:31.798Z,16.50
2018-09-04T06:41:43.431Z,16.60
2018-09-04T06:44:54.659Z,16.60
2018-09-04T06:48:06.697Z,16.70
2018-09-04T06:51:18.696Z,16.70
2018-09-04T06:54:30.439Z,16.80
2018-09-04T06:57:42.215Z,16.80
2018-09-04T07:00:53.684Z,16.80
2018-09-04T07:04:05.382Z,16.70
2018-09-04T07:07:16.539Z,16.90
2018-09-04T07:10:27.617Z,16.90
2018-09-04T07:13:38.814Z,17.00
2018-09-04T07:16:50.815Z,17.00
2018-09-04T07:20:02.921Z,17.10
2018-09-04T07:23:14.912Z,17.10
2018-09-04T07:26:26.757Z,17.20
2018-09-04T07:29:38.056Z,17.20
2018-09-04T07:32:49.401Z,17.20
2018-09-04T07:36:01.302Z,17.30
2018-09-04T07:39:13.410Z,17.40
2018-09-04T07:42:25.409Z,17.40
2018-09-04T07:45:37.515Z,17.40
2018-09-04T07:48:49.498Z,17.40
2018-09-04T07:52:00.771Z,17.50
2018-09-04T07:55:12.694Z,17.40
2018-09-04T07:58:24.515Z,17.50
2018-09-04T08:01:35.691Z,17.60
2018-09-04T08:04:47.230Z,17.70
2018-09-04T08:07:59.247Z,17.70
2018-09-04T08:11:11.284Z,17.80
2018-09-04T08:14:22.337Z,17.80
2018-09-04T08:17:33.412Z,18.00
2018-09-04T08:20:44.665Z,18.10
2018-09-04T08:23:56.528Z,18.20
2018-09-04T08:27:08.092Z,18.30
2018-09-04T08:30:19.797Z,18.50
2018-09-04T08:33:31.041Z,18.60
2018-09-04T08:36:42.067Z,18.70
2018-09-04T08:39:53.237Z,18.60
2018-09-04T08:43:05.128Z,18.70
2018-09-04T08:46:16.727Z,18.80
2018-09-04T08:49:27.958Z,18.90
2018-09-04T08:52:39.050Z,19.00
2018-09-04T08:55:51.088Z,19.10
2018-09-04T08:59:02.356Z,19.20
2018-09-04T09:02:14.309Z,19.40
2018-09-04T09:05:25.572Z,19.40
2018-09-04T09:08:37.726Z,19.50
2018-09-04T09:11:48.816Z,19.70
2018-09-04T09:15:00.259Z,19.70
2018-09-04T09:18:11.627Z,19.70
2018-09-04T09:21:23.286Z,19.80
2018-09-04T09:24:35.231Z,19.90
2018-09-04T09:27:47.665Z,20.10
2018-09-04T09:30:59.426Z,20.20
2018-09-04T09:34:11.284Z,20.40
2018-09-04T09:37:23.041Z,20.50
2018-09-04T09:40:34.592Z,20.70
2018-09-04T09:43:46.303Z,20.70
2018-09-04T09:47:03.193Z,20.80
2018-09-04T09:50:14.636Z,20.90
2018-09-04T09:53:25.936Z,21.00
2018-09-04T09:56:37.821Z,21.20
2018-09-04T09:59:49.182Z,21.20
2018-09-04T10:03:04.236Z,21.20
2018-09-04T10:06:16.660Z,21.30
2018-09-04T10:09:28.043Z,21.40
2018-09-04T10:12:39.440Z,21.60
2018-09-04T10:15:50.535Z,21.60
2018-09-04T10:19:02.862Z,21.60
2018-09-04T10:22:14.157Z,21.70
2018-09-04T10:25:25.281Z,21.90
2018-09-04T10:28:37.677Z,22.10
2018-09-04T10:31:48.679Z,22.10
2018-09-04T10:34:59.890Z,22.20
2018-09-04T10:38:11.490Z,22.20
2018-09-04T10:41:23.637Z,22.40
2018-09-04T10:44:34.684Z,22.50
2018-09-04T10:47:45.799Z,22.70
2018-09-04T10:50:57.192Z,22.50
2018-09-04T10:54:09.012Z,22.70
2018-09-04T10:57:20.259Z,22.50
2018-09-04T11:00:31.653Z,22.60
2018-09-04T11:03:43.358Z,22.70
2018-09-04T11:06:54.403Z,22.80
2018-09-04T11:10:05.604Z,22.90
2018-09-04T11:13:16.587Z,23.00
2018-09-04T11:16:27.798Z,23.10
2018-09-04T11:19:38.971Z,22.70
2018-09-04T11:22:49.764Z,22.80
2018-09-04T11:26:01.533Z,22.80
2018-09-04T11:29:14.447Z,22.70
2018-09-04T11:32:26.085Z,22.50
2018-09-04T11:35:38.142Z,22.40
2018-09-04T11:38:49.424Z,22.40
2018-09-04T11:42:00.539Z,22.50
2018-09-04T11:45:12.529Z,22.50
2018-09-04T11:48:24.242Z,22.80
2018-09-04T11:51:35.551Z,22.70
2018-09-04T11:54:46.852Z,22.60
2018-09-04T11:57:58.028Z,22.60
2018-09-04T12:01:11.352Z,22.60
2018-09-04T12:04:22.681Z,22.80
2018-09-04T12:07:34.232Z,22.90
2018-09-04T12:10:45.450Z,22.80
2018-09-04T12:13:57.273Z,22.70
2018-09-04T12:17:09.293Z,22.70
2018-09-04T12:20:29.842Z,22.60
2018-09-04T12:23:41.412Z,22.50
2018-09-04T12:26:53.396Z,23.00
2018-09-04T12:30:05.999Z,22.90
2018-09-04T12:33:17.158Z,22.80
2018-09-04T12:36:28.241Z,22.70
2018-09-04T12:39:43.849Z,22.60
2018-09-04T12:42:55.230Z,22.60
2018-09-04T12:46:07.038Z,22.70
2018-09-04T12:49:18.503Z,22.80
2018-09-04T12:52:30.412Z,23.00
2018-09-04T12:55:41.702Z,22.90
2018-09-04T12:58:53.087Z,23.00
2018-09-04T13:02:03.856Z,23.20
2018-09-04T13:05:15.989Z,23.40
2018-09-04T13:08:29.345Z,23.50
2018-09-04T13:11:40.735Z,23.50
2018-09-04T13:14:51.541Z,23.70
2018-09-04T13:18:03.232Z,23.70
2018-09-04T13:21:14.973Z,23.60
2018-09-04T13:24:26.464Z,23.50
2018-09-04T13:27:37.597Z,23.40
2018-09-04T13:30:49.843Z,23.30
2018-09-04T13:34:00.728Z,23.40
2018-09-04T13:37:12.233Z,23.50
2018-09-04T13:40:24.165Z,23.70
2018-09-04T13:43:36.318Z,24.00
2018-09-04T13:46:47.752Z,23.90
2018-09-04T13:49:59.217Z,23.70
2018-09-04T13:53:11.033Z,23.60
2018-09-04T13:56:22.194Z,23.70
2018-09-04T13:59:33.999Z,23.90
2018-09-04T14:02:45.010Z,24.10
2018-09-04T14:05:55.808Z,24.30
2018-09-04T14:09:08.502Z,24.20
2018-09-04T14:12:19.820Z,23.90
2018-09-04T14:15:31.632Z,23.60
2018-09-04T14:19:05.204Z,23.60
2018-09-04T14:22:20.055Z,23.60
2018-09-04T14:25:32.264Z,23.60
2018-09-04T14:28:43.776Z,23.60
2018-09-04T14:31:55.396Z,23.80
2018-09-04T14:35:08.351Z,23.80
2018-09-04T14:38:19.256Z,23.90
2018-09-04T14:41:30.218Z,24.00
2018-09-04T14:44:41.242Z,24.20
2018-09-04T14:47:52.615Z,24.10
2018-09-04T14:51:04.580Z,24.10
2018-09-04T14:54:15.644Z,24.10
2018-09-04T14:57:27.330Z,24.20
2018-09-04T15:00:38.375Z,24.20
2018-09-04T15:03:49.576Z,24.10
2018-09-04T15:07:00.783Z,24.10
2018-09-04T15:10:11.967Z,24.00
2018-09-04T15:13:23.115Z,23.90
2018-09-04T15:16:34.050Z,24.00
2018-09-04T15:19:45.192Z,24.00
2018-09-04T15:22:57.297Z,24.00
2018-09-04T15:26:08.744Z,24.00
2018-09-04T15:29:19.558Z,23.90
2018-09-04T15:32:31.518Z,23.80
2018-09-04T15:35:43.187Z,23.80
2018-09-04T15:38:54.198Z,23.80
2018-09-04T15:42:05.943Z,23.80
2018-09-04T15:45:17.332Z,23.70
2018-09-04T15:48:28.896Z,23.60
2018-09-04T15:51:39.952Z,23.60
2018-09-04T15:54:51.117Z,23.50
2018-09-04T15:58:02.908Z,23.40
2018-09-04T16:01:14.516Z,23.40
2018-09-04T16:04:25.738Z,23.40
2018-09-04T16:07:36.679Z,23.30
2018-09-04T16:10:47.933Z,23.20
2018-09-04T16:13:59.541Z,23.20
2018-09-04T16:17:11.191Z,23.10
2018-09-04T16:20:22.871Z,23.00
2018-09-04T16:23:34.268Z,22.90
2018-09-04T16:26:45.617Z,22.90
2018-09-04T16:29:58.633Z,22.80
2018-09-04T16:33:12.869Z,22.70
2018-09-04T16:36:29.614Z,22.70
2018-09-04T16:39:46.144Z,22.60
2018-09-04T16:42:59.932Z,22.60
2018-09-04T16:46:12.646Z,22.50
2018-09-04T16:49:25.878Z,22.50
2018-09-04T16:52:38.218Z,22.40
2018-09-04T16:55:50.611Z,22.50
2018-09-04T16:59:02.730Z,22.40
2018-09-04T17:02:14.432Z,22.40
2018-09-04T17:05:25.831Z,22.30
2018-09-04T17:08:37.806Z,22.30
2018-09-04T17:11:49.292Z,22.20
2018-09-04T17:15:00.600Z,22.20
2018-09-04T17:22:49.606Z,22.10
2018-09-04T17:26:01.214Z,22.00
2018-09-04T17:29:13.225Z,21.90
2018-09-04T17:32:24.316Z,21.90
2018-09-04T17:35:35.984Z,21.80
2018-09-04T17:38:47.870Z,21.70
2018-09-04T17:41:59.388Z,21.60
2018-09-04T17:45:10.563Z,21.50
2018-09-04T17:48:22.004Z,21.40
2018-09-04T17:51:33.785Z,21.30
2018-09-04T17:54:45.039Z,21.20
2018-09-04T17:57:57.632Z,21.10
2018-09-04T18:01:08.953Z,20.90
2018-09-04T18:04:20.744Z,20.80
2018-09-04T18:07:32.693Z,20.80
2018-09-04T18:10:44.694Z,20.70
2018-09-04T18:13:56.468Z,20.60
2018-09-04T18:17:08.939Z,20.40
2018-09-04T18:20:20.314Z,20.40
2018-09-04T18:23:32.502Z,20.30
2018-09-04T18:26:44.074Z,20.20
2018-09-04T18:29:55.660Z,20.20
2018-09-04T18:33:07.599Z,20.10
2018-09-04T18:36:19.499Z,20.10
2018-09-04T18:39:31.364Z,20.00
2018-09-04T18:42:43.169Z,19.90
2018-09-04T18:45:56.965Z,19.80
2018-09-04T18:49:08.937Z,19.80
2018-09-04T18:52:20.097Z,19.70
2018-09-04T18:55:31.829Z,19.60
2018-09-04T18:58:43.335Z,19.50
2018-09-04T19:01:56.191Z,19.40
2018-09-04T19:05:08.157Z,19.40
2018-09-04T19:09:45.764Z,19.40
2018-09-04T19:12:57.458Z,19.30
2018-09-04T19:16:09.786Z,19.10
2018-09-04T19:19:21.392Z,19.10
2018-09-04T19:22:33.460Z,19.00
2018-09-04T19:25:44.600Z,18.90
2018-09-04T19:28:56.464Z,18.80
2018-09-04T19:32:07.841Z,18.70
2018-09-04T19:35:19.219Z,18.60
2018-09-04T19:38:31.498Z,18.50
2018-09-04T19:41:43.273Z,18.40
2018-09-04T19:44:54.545Z,18.40
2018-09-04T19:48:09.080Z,18.30
2018-09-04T19:51:21.098Z,18.20
2018-09-04T19:54:32.710Z,18.20
2018-09-04T19:57:44.478Z,18.20
2018-09-04T20:00:56.699Z,18.10
2018-09-04T20:04:08.912Z,18.00
2018-09-04T20:07:20.394Z,18.00
2018-09-04T20:10:32.453Z,17.90
2018-09-04T20:13:44.405Z,17.80
2018-09-04T20:16:55.648Z,17.80
2018-09-04T20:20:07.695Z,17.80
2018-09-04T20:23:19.696Z,17.90
2018-09-04T20:26:31.626Z,17.80
2018-09-04T20:29:43.357Z,17.80
2018-09-04T20:32:55.431Z,17.80
2018-09-04T20:36:07.664Z,17.80
2018-09-04T20:39:19.676Z,17.80
2018-09-04T20:42:31.604Z,17.70
2018-09-04T20:45:43.778Z,17.60
2018-09-04T20:48:54.914Z,17.70
2018-09-04T20:52:06.690Z,17.70
2018-09-04T20:55:18.304Z,17.70
2018-09-04T20:58:46.453Z,17.60
2018-09-04T21:02:15.454Z,17.60
2018-09-04T21:05:44.411Z,17.60
2018-09-04T21:09:03.542Z,17.60
2018-09-04T21:12:15.131Z,17.50
2018-09-04T21:15:26.545Z,17.50
2018-09-04T21:18:37.623Z,17.50
2018-09-04T21:21:48.833Z,17.50
2018-09-04T21:25:01.170Z,17.40
2018-09-04T21:28:12.633Z,17.40
2018-09-04T21:31:24.595Z,17.40
2018-09-04T21:34:36.032Z,17.40
2018-09-04T21:37:48.067Z,17.30
2018-09-04T21:41:00.339Z,17.30
2018-09-04T21:44:12.231Z,17.30
2018-09-04T21:47:23.591Z,17.20
2018-09-04T21:50:34.944Z,17.20
2018-09-04T21:53:46.855Z,17.20
2018-09-04T21:56:58.879Z,17.20
2018-09-04T22:00:10.711Z,17.20
2018-09-04T22:03:21.848Z,17.20
2018-09-04T22:06:33.565Z,17.10
2018-09-04T22:09:45.283Z,17.10
2018-09-04T22:12:56.776Z,17.10
2018-09-04T22:16:08.507Z,17.10
2018-09-04T22:19:20.017Z,17.10
2018-09-04T22:22:31.008Z,17.10
2018-09-04T22:25:43.009Z,17.00
2018-09-04T22:28:54.166Z,17.00
2018-09-04T22:32:05.413Z,17.00
2018-09-04T22:35:17.256Z,17.00
2018-09-04T22:38:29.125Z,17.00
2018-09-04T22:41:42.346Z,17.00
2018-09-04T22:44:54.305Z,17.00
2018-09-04T22:48:05.408Z,16.90
2018-09-04T22:51:22.820Z,16.90
2018-09-04T22:54:33.800Z,16.90
2018-09-04T22:57:45.383Z,16.80
2018-09-04T23:00:57.229Z,16.70
2018-09-04T23:04:08.697Z,16.70
2018-09-04T23:07:20.843Z,16.70
2018-09-04T23:10:31.969Z,16.60
2018-09-04T23:13:43.991Z,16.50
2018-09-04T23:16:55.077Z,16.50
2018-09-04T23:20:06.763Z,16.50
2018-09-04T23:23:18.735Z,16.40
2018-09-04T23:26:30.518Z,16.30
2018-09-04T23:29:41.674Z,16.20
2018-09-04T23:32:52.784Z,16.20
2018-09-04T23:36:04.858Z,16.20
2018-09-04T23:39:16.137Z,16.20
2018-09-04T23:42:32.677Z,16.10
2018-09-04T23:45:43.784Z,16.10
2018-09-04T23:48:55.685Z,16.00
2018-09-04T23:52:07.137Z,16.00
2018-09-04T23:55:18.424Z,16.00
2018-09-04T23:58:29.970Z,16.00
